Terminal Aerodrome Forecast
Issued by NWS

Home | Current Version | Previous Version | Text Only | Print | Product List | Glossary On
Versions: 1 2 3 4 5 6 7 8 9 10 11 12 13 14 15 16 17 18 19 20 21 22 23 24 25 26 27 28
000
FTUS43 KGRR 161027 AAC
TAFAZO
TAF AMD
KAZO 161027Z 1610/1706 21009KT P6SM -SN BKN060 OVC080 WS020/25035KT
     FM161100 18004KT P6SM VCSH OVC045
     FM161200 19005KT P6SM OVC045
     FM161900 18004KT P6SM OVC060
     FM162200 11004KT P6SM SCT120=

USA.gov is the U.S. government's official web portal to all federal, state and local government web resources and services.